Tuesday, September 2, 2014, 7:30 AM EDT

KPTW, Pottstown Limerick Airport

Location: Royersford, PA, United States Lat: 40.233
Local Time: 7:30 AM EDT (11:30 GMT) Lon: -75.55
Time Zone: US/Eastern Elev: 291 ft

Show me the last for .
Show Decoded

2014-09-02 06:54 METAR KPTW 021054Z AUTO 00000KT 5SM BR CLR 21/21 A2996 RMK AO2 SLP140 T02110206
                 =
2014-09-02 06:51 METAR KPTW 021051Z AUTO 00000KT 2 1/2SM BR CLR 21/21 A2996 RMK AO2 VIS 3/4V5 =
2014-09-02 06:44 METAR KPTW 021044Z AUTO 00000KT 1/2SM FG CLR 21/21 A2996 RMK AO2 T02110206 =
2014-09-02 05:54 METAR KPTW 020954Z AUTO 00000KT 9SM CLR 22/21 A2994 RMK AO2 SLP133 T02220211 =
2014-09-02 04:54 METAR KPTW 020854Z AUTO 00000KT 9SM CLR 22/22 A2993 RMK AO2 SLP130 T02220217
                 58010 =
2014-09-02 03:54 METAR KPTW 020754Z AUTO 00000KT 9SM BKN060 23/22 A2994 RMK AO2 SLP134 T02280222
                 =
2014-09-02 01:54 METAR KPTW 020554Z AUTO 00000KT 5SM BR SCT065 22/22 A2996 RMK AO2 SLP141 60003
                 T02220222 10272 20217 58007 =
2014-09-02 01:51 METAR KPTW 020551Z AUTO 00000KT 3SM BR BKN065 22/22 A2996 RMK AO2 =
2014-09-02 01:39 METAR KPTW 020539Z AUTO 00000KT 1 3/4SM BR FEW060 22/22 A2997 RMK AO2 VIS 1/2V4
                 T02220217 =
2014-09-02 01:12 METAR KPTW 020512Z AUTO 00000KT 3SM BR BKN065 22/22 A2997 RMK AO2 T02220217 =
2014-09-02 00:54 METAR KPTW 020454Z AUTO 00000KT 1 1/4SM BR FEW003 22/22 A2997 RMK AO2 VIS 1/2V2
                 1/2 SLP145 T02220217 402940217 =
2014-09-02 00:46 METAR KPTW 020446Z AUTO 00000KT 1SM BR VV003 22/22 A2997 RMK AO2 LTG DSNT W
                 T02220222 =
2014-09-02 00:41 METAR KPTW 020441Z AUTO 00000KT 3/4SM BR VV002 22/22 A2997 RMK AO2 LTG DSNT W
                 T02220217 =
2014-09-02 00:35 METAR KPTW 020435Z AUTO 00000KT 3/4SM BR FEW003 FEW100 22/22 A2997 RMK AO2 LTG
                 DSNT W T02220217 =
2014-09-02 00:08 METAR KPTW 020408Z AUTO 00000KT 3/4SM BR VV003 22/22 A2998 RMK AO2 T02220217 =
2014-09-02 00:05 METAR KPTW 020405Z AUTO 00000KT 1 1/2SM BR FEW003 22/22 A2998 RMK AO2 T02220222
                 =
2014-09-01 23:54 METAR KPTW 020354Z AUTO 00000KT 6SM BR CLR 23/23 A2998 RMK AO2 SLP146 T02330228
                 =
2014-09-01 22:54 METAR KPTW 020254Z AUTO 00000KT 6SM BR CLR 24/23 A2998 RMK AO2 SLP148 60003
                 T02390228 51005 =
2014-09-01 21:54 METAR KPTW 020154Z AUTO 00000KT 10SM SCT055 24/23 A2998 RMK AO2 RAB08E31 SLP148
                 P0003 T02440228 =
2014-09-01 20:54 METAR KPTW 020054Z AUTO 19004KT 10SM FEW070 27/22 A2998 RMK AO2 LTG DSNT SW AND
                 W SLP146 T02670222 =
2014-09-01 19:54 METAR KPTW 012354Z AUTO 19003KT 10SM CLR 27/22 A2997 RMK AO2 LTG DSNT W SLP143
                 60001 T02720222 10294 20272 53002 =
2014-09-01 17:54 METAR KPTW 012154Z AUTO VRB03KT 10SM BKN039 BKN046 29/21 A2995 RMK AO2 SLP137
                 T02940211 =
2014-09-01 16:54 METAR KPTW 012054Z AUTO 24004KT 10SM SCT039 BKN048 BKN070 29/22 A2996 RMK AO2
                 RAB17E37 SLP141 P0001 60001 T02940217 56012 =
2014-09-01 15:54 METAR KPTW 011954Z AUTO 22003KT 10SM BKN038 BKN046 OVC070 29/21 A2997 RMK AO2
                 SLP144 T02890211 =
2014-09-01 14:54 METAR KPTW 011854Z AUTO VRB03KT 10SM FEW033 SCT041 OVC065 28/21 A2998 RMK AO2
                 SLP148 T02830211 =
2014-09-01 13:54 METAR KPTW 011754Z AUTO 25004KT 10SM SCT031 BKN042 OVC070 28/21 A3000 RMK AO2
                 SLP153 T02830211 10289 20228 56013 =
2014-09-01 13:24 METAR KPTW 011724Z AUTO 22006KT 10SM BKN030 OVC040 28/21 A3000 RMK AO2 T02830211
                 =
2014-09-01 12:54 METAR KPTW 011654Z AUTO 23005KT 10SM BKN026 OVC033 28/22 A3001 RMK AO2 SLP157
                 T02830222 =
2014-09-01 12:05 METAR KPTW 011605Z AUTO 20006KT 10SM FEW018 BKN025 OVC040 27/22 A3002 RMK AO2
                 T02720217 =
2014-09-01 11:54 METAR KPTW 011554Z AUTO VRB06KT 10SM FEW018 BKN032 OVC040 28/22 A3002 RMK AO2
                 SLP162 T02780222 =
2014-09-01 10:54 METAR KPTW 011454Z AUTO VRB03KT 10SM BKN045 OVC060 27/22 A3004 RMK AO2 SLP166
                 T02670222 56003 =
2014-09-01 09:54 METAR KPTW 011354Z AUTO 00000KT 10SM BKN038 OVC046 25/22 A3004 RMK AO2 SLP167
                 T02500217 =
2014-09-01 08:54 METAR KPTW 011254Z AUTO 00000KT 10SM SCT040 BKN049 OVC060 24/22 A3004 RMK AO2
                 SLP167 T02390217 =
2014-09-01 07:54 METAR KPTW 011154Z AUTO 00000KT 8SM SCT041 OVC050 23/22 A3004 RMK AO2 SLP169
                 70066 T02280217 10228 20217 51005 =

Support USWX by starting your Amazon purchase here.